Flight Track Log - Related Links

Times and Time Zones

All times are in EDT time to prevent confusion due to time zone crossing. See the SKW5646 flight status page for this flight to view local times or setup timezone preferences in your user account.

Time Position Orientation Groundspeed Altitude Reporting Facility
EDT Latitude Longitude Course Direction KTS MPH feet Rate Location/Type
Tue 03:21:52 PM 34.4261 -119.8225 324° Northwest 150 173 24,000  Level Los Angeles Center
Tue 03:22:30 PM 34.4019 -119.8197 175° South 165 190 1,900 -20,806 Descending Los Angeles Center
Tue 03:22:54 PM 34.4019 -119.8397 270° West 168 193 2,500 767 Climbing Los Angeles Center
Tue 03:23:56 PM 34.3900 -119.9164 259° West 226 260 3,000 1,016 Climbing Los Angeles Center
Tue 03:24:58 PM 34.3819 -119.9969 263° West 239 275 4,600 1,355 Climbing Los Angeles Center
Tue 03:26:00 PM 34.3767 -120.0708 265° West 229 264 5,800 1,113 Climbing Los Angeles Center
Tue 03:27:00 PM 34.7206 -120.2638 324° Northwest  Level FlightAware Approximate
Tue 03:27:02 PM 34.3747 -120.1519 268° West 227 261 6,900  Level Los Angeles Center
Tue 03:28:04 PM 34.4272 -120.2061 320° Northwest 253 291 7,800 1,113 Climbing Los Angeles Center
Tue 03:29:06 PM 34.4828 -120.2544 324° Northwest 246 283 9,200 1,306 Climbing Los Angeles Center
Tue 03:30:08 PM 34.5500 -120.3067 327° Northwest 239 275 10,500 1,065 Climbing Los Angeles Center
Tue 03:31:10 PM 34.6050 -120.3486 328° Northwest 243 280 11,400 774 Climbing Los Angeles Center
Tue 03:32:12 PM 34.6633 -120.3956 327° Northwest 253 291 12,100 774 Climbing Los Angeles Center
Tue 03:33:14 PM 34.7258 -120.4453 327° Northwest 255 293 13,000 823 Climbing Los Angeles Center
Tue 03:34:16 PM 34.7842 -120.4931 326° Northwest 253 291 13,800 774 Climbing Los Angeles Center
Tue 03:35:18 PM 34.8492 -120.5447 327° Northwest 252 290 14,600 726 Climbing Los Angeles Center
Tue 03:36:20 PM 34.9092 -120.5939 326° Northwest 258 297 15,300 677 Climbing Los Angeles Center
Tue 03:37:22 PM 34.9686 -120.6422 326° Northwest 258 297 16,000 677 Climbing Los Angeles Center
Tue 03:38:24 PM 35.0289 -120.6897 327° Northwest 260 299 16,700 726 Climbing Los Angeles Center
Tue 03:39:26 PM 35.1008 -120.7486 326° Northwest 259 298 17,500 726 Climbing Los Angeles Center
Tue 03:40:28 PM 35.1611 -120.7975 326° Northwest 259 298 18,200 672 Climbing Los Angeles Center
Tue 03:41:31 PM 35.2211 -120.8464 326° Northwest 260 299 18,900 720 Climbing Los Angeles Center
Tue 03:42:33 PM 35.2792 -120.8947 326° Northwest 254 292 19,700 823 Climbing Los Angeles Center
Tue 03:43:35 PM 35.3364 -120.9408 327° Northwest 248 285 20,600 882 Climbing Los Angeles Center
Tue 03:44:15 PM 35.3772 -120.9756 325° Northwest 243 280 21,200 713 Climbing Oakland Center
Tue 03:45:16 PM 35.4325 -121.0219 326° Northwest 238 274 21,800 623 Climbing Oakland Center
Tue 03:47:18 PM 35.5461 -121.1142 327° Northwest 241 277 23,100 620 Climbing Oakland Center
Tue 03:48:20 PM 35.6022 -121.1608 326° Northwest 243 280 23,700 439 Climbing Oakland Center
Tue 03:49:21 PM 35.6583 -121.2078 326° Northwest 242 278 24,000 148 Climbing Oakland Center
Tue 03:50:22 PM 35.7172 -121.2561 326° Northwest 253 291 24,000  Level Oakland Center
Tue 03:51:23 PM 35.7914 -121.3164 327° Northwest 266 306 24,000  Level Oakland Center
Tue 03:52:25 PM 35.8536 -121.3692 325° Northwest 270 311 24,000  Level Oakland Center
Tue 03:53:26 PM 35.9175 -121.4222 326° Northwest 275 316 24,000  Level Oakland Center
Tue 03:54:27 PM 35.9819 -121.4753 326° Northwest 277 319 24,000  Level Oakland Center
Tue 03:55:28 PM 36.0453 -121.5314 324° Northwest 278 320 24,000  Level Oakland Center
Tue 03:56:30 PM 36.1103 -121.5831 327° Northwest 277 319 24,000  Level Oakland Center
Tue 03:57:31 PM 36.1733 -121.6381 325° Northwest 276 318 24,000 -98 Level Oakland Center
Tue 03:58:32 PM 36.2450 -121.6778 336° Northwest 277 319 23,800 -732 Descending Oakland Center
Tue 03:59:34 PM 36.3206 -121.7175 337° Northwest 292 336 22,500 -1,268 Descending Oakland Center
Tue 04:00:35 PM 36.4003 -121.7564 339° North 304 350 21,200 -1,500 Descending Oakland Center
Tue 04:01:06 PM 36.4500 -121.7833 336° Northwest 300 345 20,200 -1,674 Descending Northern Cal TRACON
Tue 04:02:01 PM 36.5333 -121.8167 342° North 309 356 18,800 -1,461 Descending Northern Cal TRACON
Tue 04:03:01 PM 36.6000 -121.8667 329° Northwest 312 359 17,400 -1,381 Descending Northern Cal TRACON
Tue 04:04:07 PM 36.6833 -121.9167 334° Northwest 309 356 15,900 -1,333 Descending Northern Cal TRACON
Tue 04:05:07 PM 36.7667 -121.9500 342° North 307 353 14,600 -1,250 Descending Northern Cal TRACON
Tue 04:06:07 PM 36.8500 -122.0000 334° Northwest 309 356 13,400 -1,188 Descending Northern Cal TRACON
Tue 04:06:43 PM 36.8964 -122.0231 338° Northwest 306 352 12,700 -1,175 Descending Oakland Center
Tue 04:07:44 PM 36.9756 -122.0647 337° Northwest 309 356 11,500 -1,171 Descending Oakland Center
Tue 04:08:46 PM 37.0542 -122.1053 338° Northwest 308 354 10,300 -732 Descending Oakland Center
Tue 04:09:47 PM 37.1311 -122.1453 337° Northwest 302 348 10,000 -393 Descending Oakland Center
Tue 04:10:48 PM 37.2017 -122.1797 339° North 276 318 9,500 -738 Descending Oakland Center
Tue 04:11:49 PM 37.2514 -122.2292 322° Northwest 238 274 8,500 -1,024 Descending Oakland Center
Tue 04:12:51 PM 37.3058 -122.2631 334° Northwest 244 281 7,400 -976 Descending Oakland Center
Tue 04:13:52 PM 37.3636 -122.2331 22° Northeast 224 258 6,500 -934 Descending Oakland Center
Tue 04:14:53 PM 37.4161 -122.2069 22° Northeast 206 237 5,500 -780 Descending Oakland Center
Tue 04:15:55 PM 37.4750 -122.1986 North 216 249 4,900 -1,073 Descending Oakland Center
Tue 04:16:56 PM 37.5394 -122.2108 351° North 211 243 3,300 -1,574 Descending Oakland Center

Login

Don't have an account? Register now (free) for customized features, flight alerts, and more!